VLO2485 SBGR-SBFL
Flight info
| Callsign | VLO2485 |
|---|---|
| Flight time | 0h 52m |
| Altitude | 36000 |
| Route | MADNI UZ92 PUBIS |
| Aircraft | B752/M-SDE2E3FGHIJ3J4J7RWXY/LB1 |
Departure
| Time | 2026-04-26 01:18 |
|---|---|
| Airport | São Paulo/Guarulhos–Governor André Franco Montoro International Airport (SBGR) |
Arrival
| Time | 2026-04-26 02:10 |
|---|---|
| Airport | Hercílio Luz International Airport (SBFL) |
| Time | Latitude | Longitude | Altitude | Speed | Heading |
|---|---|---|---|---|---|
| 2026-04-26 01:07 | -23.42906 | -46.48882 | 2467 ft | 0 kts | 275° |
| 2026-04-26 01:08 | -23.42907 | -46.48866 | 2468 ft | 2 kts | 275° |
| 2026-04-26 01:08 | -23.42909 | -46.48851 | 2468 ft | 1 kts | 276° |
| 2026-04-26 01:08 | -23.42910 | -46.48840 | 2468 ft | 2 kts | 268° |
| 2026-04-26 01:09 | -23.42907 | -46.48824 | 2468 ft | 2 kts | 246° |
| 2026-04-26 01:09 | -23.42899 | -46.48810 | 2468 ft | 2 kts | 228° |
| 2026-04-26 01:09 | -23.42888 | -46.48799 | 2468 ft | 2 kts | 209° |
| 2026-04-26 01:09 | -23.42873 | -46.48794 | 2468 ft | 2 kts | 191° |
| 2026-04-26 01:10 | -23.42866 | -46.48793 | 2468 ft | 1 kts | 182° |
| 2026-04-26 01:10 | -23.42864 | -46.48793 | 2468 ft | 0 kts | 184° |
| 2026-04-26 01:12 | -23.42867 | -46.48793 | 2468 ft | 2 kts | 185° |
| 2026-04-26 01:12 | -23.42909 | -46.48798 | 2468 ft | 9 kts | 187° |
| 2026-04-26 01:12 | -23.42994 | -46.48807 | 2467 ft | 13 kts | 185° |
| 2026-04-26 01:12 | -23.43092 | -46.48816 | 2467 ft | 15 kts | 185° |
| 2026-04-26 01:13 | -23.43161 | -46.48790 | 2467 ft | 9 kts | 110° |
| 2026-04-26 01:13 | -23.43171 | -46.48723 | 2467 ft | 8 kts | 97° |
| 2026-04-26 01:13 | -23.43176 | -46.48669 | 2467 ft | 7 kts | 95° |
| 2026-04-26 01:13 | -23.43182 | -46.48597 | 2467 ft | 12 kts | 96° |
| 2026-04-26 01:14 | -23.43192 | -46.48487 | 2467 ft | 17 kts | 95° |
| 2026-04-26 01:14 | -23.43265 | -46.48415 | 2467 ft | 15 kts | 162° |
| 2026-04-26 01:14 | -23.43302 | -46.48402 | 2467 ft | 0 kts | 163° |
| 2026-04-26 01:15 | -23.43303 | -46.48402 | 2467 ft | 0 kts | 163° |
| 2026-04-26 01:15 | -23.43352 | -46.48387 | 2467 ft | 13 kts | 163° |
| 2026-04-26 01:16 | -23.43418 | -46.48327 | 2468 ft | 8 kts | 99° |
| 2026-04-26 01:16 | -23.43410 | -46.48273 | 2467 ft | 3 kts | 73° |
| 2026-04-26 01:16 | -23.43408 | -46.48267 | 2468 ft | 0 kts | 73° |
| 2026-04-26 01:16 | -23.43407 | -46.48261 | 2467 ft | 4 kts | 73° |
| 2026-04-26 01:17 | -23.43351 | -46.48057 | 2468 ft | 58 kts | 73° |
| 2026-04-26 01:17 | -23.43167 | -46.47378 | 2469 ft | 127 kts | 74° |
| 2026-04-26 01:17 | -23.42854 | -46.46220 | 2493 ft | 185 kts | 72° |
| 2026-04-26 01:17 | -23.42473 | -46.44771 | 2879 ft | 211 kts | 73° |
| 2026-04-26 01:18 | -23.42075 | -46.43177 | 3539 ft | 227 kts | 73° |
| 2026-04-26 01:18 | -23.41644 | -46.41502 | 4295 ft | 236 kts | 72° |
| 2026-04-26 01:18 | -23.41135 | -46.39807 | 5103 ft | 239 kts | 69° |
| 2026-04-26 01:18 | -23.40549 | -46.38026 | 5500 ft | 262 kts | 70° |
| 2026-04-26 01:19 | -23.40241 | -46.36014 | 5980 ft | 280 kts | 95° |
| 2026-04-26 01:19 | -23.40740 | -46.33930 | 6602 ft | 290 kts | 111° |
| 2026-04-26 01:19 | -23.41415 | -46.31879 | 7534 ft | 290 kts | 110° |
| 2026-04-26 01:19 | -23.42084 | -46.29791 | 8361 ft | 292 kts | 110° |
| 2026-04-26 01:20 | -23.42844 | -46.27758 | 9217 ft | 292 kts | 123° |
| 2026-04-26 01:20 | -23.44210 | -46.26183 | 9913 ft | 292 kts | 150° |
| 2026-04-26 01:20 | -23.46128 | -46.25397 | 10492 ft | 299 kts | 174° |
| 2026-04-26 01:20 | -23.48283 | -46.25444 | 10760 ft | 318 kts | 190° |
| 2026-04-26 01:21 | -23.50509 | -46.25869 | 11065 ft | 336 kts | 191° |
| 2026-04-26 01:21 | -23.52789 | -46.26624 | 11524 ft | 345 kts | 208° |
| 2026-04-26 01:21 | -23.54759 | -46.28112 | 12289 ft | 344 kts | 225° |
| 2026-04-26 01:21 | -23.56217 | -46.30149 | 12978 ft | 346 kts | 242° |
| 2026-04-26 01:22 | -23.57070 | -46.32602 | 13626 ft | 349 kts | 257° |
| 2026-04-26 01:22 | -23.57523 | -46.35216 | 14287 ft | 351 kts | 258° |
| 2026-04-26 01:22 | -23.58014 | -46.37845 | 14921 ft | 354 kts | 258° |
| 2026-04-26 01:22 | -23.58515 | -46.40467 | 15566 ft | 356 kts | 258° |
| 2026-04-26 01:23 | -23.59026 | -46.43100 | 16040 ft | 362 kts | 258° |
| 2026-04-26 01:23 | -23.59556 | -46.45810 | 16058 ft | 365 kts | 258° |
| 2026-04-26 01:23 | -23.60085 | -46.48502 | 16056 ft | 357 kts | 258° |
| 2026-04-26 01:23 | -23.60598 | -46.51109 | 16060 ft | 356 kts | 258° |
| 2026-04-26 01:24 | -23.61043 | -46.53789 | 16245 ft | 363 kts | 262° |
| 2026-04-26 01:24 | -23.61434 | -46.56497 | 17118 ft | 357 kts | 261° |
| 2026-04-26 01:24 | -23.61828 | -46.59177 | 17594 ft | 363 kts | 261° |
| 2026-04-26 01:24 | -23.62227 | -46.61892 | 18217 ft | 363 kts | 261° |
| 2026-04-26 01:25 | -23.62722 | -46.64620 | 18686 ft | 369 kts | 253° |
| 2026-04-26 01:25 | -23.63813 | -46.67163 | 19243 ft | 373 kts | 240° |
| 2026-04-26 01:25 | -23.65182 | -46.69539 | 19788 ft | 375 kts | 240° |
| 2026-04-26 01:25 | -23.66571 | -46.71969 | 20259 ft | 378 kts | 240° |
| 2026-04-26 01:26 | -23.67994 | -46.74419 | 20780 ft | 381 kts | 238° |
| 2026-04-26 01:26 | -23.69674 | -46.76634 | 21260 ft | 387 kts | 227° |
| 2026-04-26 01:26 | -23.71786 | -46.78511 | 21733 ft | 394 kts | 217° |
| 2026-04-26 01:26 | -23.74221 | -46.79930 | 22170 ft | 402 kts | 206° |
| 2026-04-26 01:27 | -23.76925 | -46.80856 | 22612 ft | 411 kts | 197° |
| 2026-04-26 01:27 | -23.79749 | -46.81498 | 23153 ft | 412 kts | 197° |
| 2026-04-26 01:27 | -23.82573 | -46.82164 | 23564 ft | 415 kts | 197° |
| 2026-04-26 01:27 | -23.85406 | -46.82834 | 24094 ft | 416 kts | 198° |
| 2026-04-26 01:28 | -23.88273 | -46.83515 | 24520 ft | 419 kts | 198° |
| 2026-04-26 01:28 | -23.91127 | -46.84195 | 24975 ft | 421 kts | 198° |
| 2026-04-26 01:28 | -23.93936 | -46.84864 | 25394 ft | 424 kts | 198° |
| 2026-04-26 01:28 | -23.96825 | -46.85553 | 25803 ft | 427 kts | 198° |
| 2026-04-26 01:29 | -23.99756 | -46.86253 | 26274 ft | 428 kts | 198° |
| 2026-04-26 01:29 | -24.02665 | -46.86948 | 26657 ft | 431 kts | 198° |
| 2026-04-26 01:29 | -24.05607 | -46.87651 | 27077 ft | 433 kts | 198° |
| 2026-04-26 01:29 | -24.08584 | -46.88363 | 27428 ft | 436 kts | 198° |
| 2026-04-26 01:30 | -24.11581 | -46.89080 | 27878 ft | 437 kts | 199° |
| 2026-04-26 01:30 | -24.14545 | -46.89791 | 28170 ft | 442 kts | 198° |
| 2026-04-26 01:30 | -24.17587 | -46.90518 | 28649 ft | 441 kts | 199° |
| 2026-04-26 01:30 | -24.20567 | -46.91233 | 28954 ft | 445 kts | 199° |
| 2026-04-26 01:31 | -24.23606 | -46.91962 | 29346 ft | 446 kts | 199° |
| 2026-04-26 01:31 | -24.26662 | -46.92697 | 29501 ft | 452 kts | 198° |
| 2026-04-26 01:31 | -24.29776 | -46.93442 | 29963 ft | 451 kts | 198° |
| 2026-04-26 01:31 | -24.32841 | -46.94179 | 30142 ft | 457 kts | 198° |
| 2026-04-26 01:32 | -24.35969 | -46.94931 | 30430 ft | 459 kts | 198° |
| 2026-04-26 01:32 | -24.39129 | -46.95689 | 30740 ft | 461 kts | 198° |
| 2026-04-26 01:32 | -24.42269 | -46.96445 | 30967 ft | 464 kts | 199° |
| 2026-04-26 01:32 | -24.45409 | -46.97200 | 31223 ft | 466 kts | 199° |
| 2026-04-26 01:33 | -24.48604 | -46.97969 | 31547 ft | 467 kts | 198° |
| 2026-04-26 01:33 | -24.51776 | -46.98734 | 31652 ft | 472 kts | 199° |
| 2026-04-26 01:33 | -24.55022 | -46.99515 | 32101 ft | 469 kts | 199° |
| 2026-04-26 01:33 | -24.58183 | -47.00328 | 32467 ft | 465 kts | 203° |
| 2026-04-26 01:34 | -24.61148 | -47.01561 | 32712 ft | 458 kts | 212° |
| 2026-04-26 01:34 | -24.63900 | -47.03279 | 33123 ft | 450 kts | 218° |
| 2026-04-26 01:34 | -24.66564 | -47.05114 | 33567 ft | 447 kts | 218° |
| 2026-04-26 01:34 | -24.69204 | -47.06942 | 33847 ft | 448 kts | 218° |
| 2026-04-26 01:35 | -24.71804 | -47.08758 | 34235 ft | 446 kts | 218° |
| 2026-04-26 01:35 | -24.74417 | -47.10594 | 34643 ft | 443 kts | 218° |
| 2026-04-26 01:35 | -24.77024 | -47.12434 | 34963 ft | 442 kts | 218° |
| 2026-04-26 01:35 | -24.79620 | -47.14270 | 35290 ft | 441 kts | 218° |
| 2026-04-26 01:36 | -24.82191 | -47.16092 | 35574 ft | 440 kts | 219° |
| 2026-04-26 01:36 | -24.84749 | -47.17909 | 35834 ft | 439 kts | 219° |
| 2026-04-26 01:37 | -24.92412 | -47.23358 | 35917 ft | 438 kts | 219° |
| 2026-04-26 01:37 | -24.97526 | -47.27000 | 35910 ft | 436 kts | 219° |
| 2026-04-26 01:38 | -25.02610 | -47.30626 | 35912 ft | 434 kts | 219° |
| 2026-04-26 01:38 | -25.07711 | -47.34267 | 35912 ft | 436 kts | 219° |
| 2026-04-26 01:39 | -25.12781 | -47.37890 | 35909 ft | 433 kts | 219° |
| 2026-04-26 01:39 | -25.17775 | -47.41457 | 35901 ft | 417 kts | 219° |
| 2026-04-26 01:40 | -25.22590 | -47.44907 | 35910 ft | 412 kts | 220° |
| 2026-04-26 01:40 | -25.27422 | -47.48378 | 35914 ft | 416 kts | 219° |
| 2026-04-26 01:41 | -25.32258 | -47.51849 | 35915 ft | 414 kts | 219° |
| 2026-04-26 01:41 | -25.37098 | -47.55329 | 35920 ft | 414 kts | 219° |
| 2026-04-26 01:42 | -25.41911 | -47.58792 | 35917 ft | 414 kts | 220° |
| 2026-04-26 01:42 | -25.46764 | -47.62286 | 35917 ft | 413 kts | 219° |
| 2026-04-26 01:43 | -25.51582 | -47.65758 | 35926 ft | 412 kts | 220° |
| 2026-04-26 01:43 | -25.56192 | -47.69085 | 35928 ft | 410 kts | 220° |
| 2026-04-26 01:44 | -25.60999 | -47.72557 | 35929 ft | 411 kts | 220° |
| 2026-04-26 01:44 | -25.65794 | -47.76023 | 35927 ft | 412 kts | 220° |
| 2026-04-26 01:45 | -25.70588 | -47.79491 | 35930 ft | 411 kts | 220° |
| 2026-04-26 01:45 | -25.75397 | -47.82975 | 35929 ft | 411 kts | 220° |
| 2026-04-26 01:46 | -25.80156 | -47.86425 | 35872 ft | 412 kts | 220° |
| 2026-04-26 01:46 | -25.82576 | -47.88179 | 35715 ft | 405 kts | 220° |
| 2026-04-26 01:46 | -25.84917 | -47.89874 | 35159 ft | 398 kts | 221° |
| 2026-04-26 01:46 | -25.87203 | -47.91534 | 34522 ft | 391 kts | 221° |
| 2026-04-26 01:47 | -25.89449 | -47.93167 | 33960 ft | 387 kts | 221° |
| 2026-04-26 01:47 | -25.91725 | -47.94825 | 33445 ft | 389 kts | 221° |
| 2026-04-26 01:47 | -25.93988 | -47.96475 | 32963 ft | 395 kts | 221° |
| 2026-04-26 01:47 | -25.96321 | -47.98174 | 32510 ft | 401 kts | 220° |
| 2026-04-26 01:48 | -25.98642 | -47.99863 | 32034 ft | 403 kts | 220° |
| 2026-04-26 01:48 | -26.00992 | -48.01572 | 31541 ft | 402 kts | 221° |
| 2026-04-26 01:48 | -26.03456 | -48.03130 | 31049 ft | 406 kts | 212° |
| 2026-04-26 01:48 | -26.06092 | -48.04235 | 30557 ft | 407 kts | 207° |
| 2026-04-26 01:49 | -26.08759 | -48.05250 | 30025 ft | 403 kts | 207° |
| 2026-04-26 01:49 | -26.11393 | -48.06255 | 29504 ft | 398 kts | 207° |
| 2026-04-26 01:49 | -26.14005 | -48.07244 | 28988 ft | 393 kts | 207° |
| 2026-04-26 01:49 | -26.16603 | -48.08225 | 28480 ft | 390 kts | 207° |
| 2026-04-26 01:50 | -26.19190 | -48.09201 | 27988 ft | 389 kts | 208° |
| 2026-04-26 01:50 | -26.21725 | -48.10156 | 27504 ft | 387 kts | 208° |
| 2026-04-26 01:50 | -26.24284 | -48.11118 | 27012 ft | 384 kts | 208° |
| 2026-04-26 01:50 | -26.26789 | -48.12060 | 26529 ft | 382 kts | 208° |
| 2026-04-26 01:51 | -26.29319 | -48.13014 | 26050 ft | 381 kts | 208° |
| 2026-04-26 01:51 | -26.31842 | -48.13963 | 25576 ft | 379 kts | 208° |
| 2026-04-26 01:51 | -26.34318 | -48.14894 | 25105 ft | 376 kts | 208° |
| 2026-04-26 01:51 | -26.36805 | -48.15831 | 24626 ft | 372 kts | 208° |
| 2026-04-26 01:52 | -26.39242 | -48.16749 | 24162 ft | 369 kts | 207° |
| 2026-04-26 01:52 | -26.41643 | -48.17654 | 23708 ft | 366 kts | 208° |
| 2026-04-26 01:52 | -26.44081 | -48.18574 | 23255 ft | 365 kts | 208° |
| 2026-04-26 01:52 | -26.46478 | -48.19479 | 22810 ft | 364 kts | 207° |
| 2026-04-26 01:53 | -26.48856 | -48.20376 | 22374 ft | 362 kts | 207° |
| 2026-04-26 01:53 | -26.51233 | -48.21273 | 21967 ft | 359 kts | 207° |
| 2026-04-26 01:53 | -26.53624 | -48.22178 | 21548 ft | 359 kts | 207° |
| 2026-04-26 01:53 | -26.55966 | -48.23064 | 21117 ft | 358 kts | 206° |
| 2026-04-26 01:54 | -26.58325 | -48.23957 | 20679 ft | 357 kts | 206° |
| 2026-04-26 01:54 | -26.60671 | -48.24844 | 20235 ft | 355 kts | 206° |
| 2026-04-26 01:54 | -26.63018 | -48.25732 | 19781 ft | 352 kts | 205° |
| 2026-04-26 01:54 | -26.65333 | -48.26608 | 19327 ft | 349 kts | 205° |
| 2026-04-26 01:55 | -26.67620 | -48.27474 | 18876 ft | 347 kts | 205° |
| 2026-04-26 01:55 | -26.69927 | -48.28348 | 18423 ft | 346 kts | 204° |
| 2026-04-26 01:55 | -26.72202 | -48.29211 | 17974 ft | 345 kts | 204° |
| 2026-04-26 01:55 | -26.74452 | -48.30065 | 17517 ft | 345 kts | 203° |
| 2026-04-26 01:56 | -26.76751 | -48.30936 | 17048 ft | 343 kts | 203° |
| 2026-04-26 01:56 | -26.78998 | -48.31788 | 16619 ft | 340 kts | 203° |
| 2026-04-26 01:56 | -26.81235 | -48.32637 | 16212 ft | 338 kts | 203° |
| 2026-04-26 01:56 | -26.83462 | -48.33483 | 15774 ft | 337 kts | 203° |
| 2026-04-26 01:57 | -26.85667 | -48.34322 | 15354 ft | 335 kts | 203° |
| 2026-04-26 01:57 | -26.87866 | -48.35157 | 14946 ft | 334 kts | 203° |
| 2026-04-26 01:57 | -26.90095 | -48.36005 | 14498 ft | 332 kts | 203° |
| 2026-04-26 01:57 | -26.92256 | -48.36845 | 14074 ft | 328 kts | 206° |
| 2026-04-26 01:58 | -26.94269 | -48.37997 | 13698 ft | 322 kts | 214° |
| 2026-04-26 01:58 | -26.96206 | -48.39241 | 13328 ft | 322 kts | 213° |
| 2026-04-26 01:58 | -26.98155 | -48.40481 | 12965 ft | 321 kts | 213° |
| 2026-04-26 01:58 | -27.00096 | -48.41721 | 12595 ft | 318 kts | 213° |
| 2026-04-26 01:59 | -27.02019 | -48.42949 | 12221 ft | 315 kts | 213° |
| 2026-04-26 01:59 | -27.03900 | -48.44154 | 11863 ft | 312 kts | 214° |
| 2026-04-26 01:59 | -27.05786 | -48.45363 | 11497 ft | 311 kts | 214° |
| 2026-04-26 01:59 | -27.07665 | -48.46568 | 11112 ft | 310 kts | 213° |
| 2026-04-26 02:00 | -27.09558 | -48.47782 | 10730 ft | 308 kts | 213° |
| 2026-04-26 02:00 | -27.11403 | -48.48966 | 10354 ft | 305 kts | 214° |
| 2026-04-26 02:00 | -27.13208 | -48.50123 | 10185 ft | 293 kts | 213° |
| 2026-04-26 02:00 | -27.14951 | -48.51240 | 10116 ft | 280 kts | 214° |
| 2026-04-26 02:01 | -27.16615 | -48.52310 | 9916 ft | 269 kts | 214° |
| 2026-04-26 02:01 | -27.18216 | -48.53339 | 9655 ft | 265 kts | 214° |
| 2026-04-26 02:01 | -27.19830 | -48.54381 | 9397 ft | 271 kts | 214° |
| 2026-04-26 02:01 | -27.21508 | -48.55404 | 9097 ft | 276 kts | 206° |
| 2026-04-26 02:02 | -27.23348 | -48.56098 | 8819 ft | 277 kts | 202° |
| 2026-04-26 02:02 | -27.24404 | -48.56476 | 8666 ft | 276 kts | 202° |
| 2026-04-26 02:02 | -27.26235 | -48.57138 | 8404 ft | 275 kts | 202° |
| 2026-04-26 02:02 | -27.28066 | -48.57792 | 8140 ft | 275 kts | 201° |
| 2026-04-26 02:03 | -27.29904 | -48.58446 | 7875 ft | 275 kts | 202° |
| 2026-04-26 02:03 | -27.31733 | -48.59095 | 7610 ft | 273 kts | 201° |
| 2026-04-26 02:03 | -27.33539 | -48.59735 | 7351 ft | 272 kts | 201° |
| 2026-04-26 02:03 | -27.35350 | -48.60378 | 7088 ft | 272 kts | 201° |
| 2026-04-26 02:04 | -27.37162 | -48.61019 | 6816 ft | 271 kts | 201° |
| 2026-04-26 02:04 | -27.38957 | -48.61655 | 6545 ft | 270 kts | 201° |
| 2026-04-26 02:04 | -27.40763 | -48.62296 | 6280 ft | 269 kts | 201° |
| 2026-04-26 02:04 | -27.42544 | -48.62928 | 6015 ft | 268 kts | 201° |
| 2026-04-26 02:05 | -27.44320 | -48.63558 | 5748 ft | 267 kts | 201° |
| 2026-04-26 02:05 | -27.46108 | -48.64193 | 5483 ft | 265 kts | 201° |
| 2026-04-26 02:05 | -27.47876 | -48.64821 | 5214 ft | 265 kts | 200° |
| 2026-04-26 02:05 | -27.49641 | -48.65366 | 4912 ft | 260 kts | 193° |
| 2026-04-26 02:06 | -27.51378 | -48.65663 | 4694 ft | 244 kts | 192° |
| 2026-04-26 02:06 | -27.53014 | -48.65950 | 4506 ft | 229 kts | 192° |
| 2026-04-26 02:06 | -27.54554 | -48.66218 | 4246 ft | 221 kts | 192° |
| 2026-04-26 02:06 | -27.56082 | -48.66483 | 3988 ft | 219 kts | 191° |
| 2026-04-26 02:07 | -27.57587 | -48.66741 | 3814 ft | 214 kts | 191° |
| 2026-04-26 02:07 | -27.59029 | -48.66988 | 3597 ft | 205 kts | 189° |
| 2026-04-26 02:07 | -27.60400 | -48.66821 | 3456 ft | 201 kts | 153° |
| 2026-04-26 02:07 | -27.61441 | -48.65734 | 3117 ft | 206 kts | 115° |
| 2026-04-26 02:08 | -27.62025 | -48.64302 | 2959 ft | 201 kts | 116° |
| 2026-04-26 02:08 | -27.62654 | -48.62868 | 2496 ft | 202 kts | 116° |
| 2026-04-26 02:08 | -27.63273 | -48.61561 | 2354 ft | 173 kts | 117° |
| 2026-04-26 02:08 | -27.63810 | -48.60458 | 2012 ft | 170 kts | 117° |
| 2026-04-26 02:09 | -27.64385 | -48.59277 | 1340 ft | 175 kts | 116° |
| 2026-04-26 02:09 | -27.64968 | -48.58077 | 752 ft | 174 kts | 119° |
| 2026-04-26 02:09 | -27.65564 | -48.56964 | 447 ft | 155 kts | 122° |
| 2026-04-26 02:09 | -27.66105 | -48.55970 | 230 ft | 144 kts | 121° |
| 2026-04-26 02:10 | -27.66635 | -48.54991 | 69 ft | 145 kts | 122° |
| 2026-04-26 02:10 | -27.67125 | -48.54075 | 33 ft | 112 kts | 130° |
| 2026-04-26 02:10 | -27.67419 | -48.53546 | 33 ft | 59 kts | 118° |
| 2026-04-26 02:10 | -27.67569 | -48.53259 | 32 ft | 21 kts | 121° |
| 2026-04-26 02:11 | -27.67617 | -48.53169 | 31 ft | 11 kts | 121° |
| 2026-04-26 02:11 | -27.67666 | -48.53089 | 31 ft | 13 kts | 149° |
| 2026-04-26 02:11 | -27.67754 | -48.53120 | 31 ft | 18 kts | 213° |
| 2026-04-26 02:11 | -27.67768 | -48.53240 | 31 ft | 17 kts | 301° |
| 2026-04-26 02:12 | -27.67708 | -48.53353 | 32 ft | 16 kts | 301° |
| 2026-04-26 02:12 | -27.67652 | -48.53457 | 32 ft | 14 kts | 302° |
| 2026-04-26 02:12 | -27.67599 | -48.53552 | 32 ft | 13 kts | 302° |
| 2026-04-26 02:12 | -27.67552 | -48.53640 | 32 ft | 12 kts | 303° |
| 2026-04-26 02:13 | -27.67507 | -48.53724 | 33 ft | 13 kts | 301° |
| 2026-04-26 02:13 | -27.67457 | -48.53818 | 33 ft | 15 kts | 301° |
| 2026-04-26 02:13 | -27.67390 | -48.53944 | 33 ft | 19 kts | 301° |
| 2026-04-26 02:13 | -27.67306 | -48.54098 | 33 ft | 26 kts | 302° |
| 2026-04-26 02:14 | -27.67196 | -48.54302 | 33 ft | 31 kts | 301° |
| 2026-04-26 02:14 | -27.67085 | -48.54509 | 33 ft | 30 kts | 301° |
| 2026-04-26 02:14 | -27.66973 | -48.54716 | 34 ft | 31 kts | 301° |
| 2026-04-26 02:14 | -27.66861 | -48.54926 | 34 ft | 30 kts | 301° |
| 2026-04-26 02:15 | -27.66768 | -48.55090 | 35 ft | 18 kts | 314° |
| 2026-04-26 02:15 | -27.66652 | -48.55138 | 35 ft | 17 kts | 348° |
| 2026-04-26 02:15 | -27.66584 | -48.55083 | 35 ft | 12 kts | 106° |
| 2026-04-26 02:15 | -27.66630 | -48.55000 | 35 ft | 12 kts | 124° |
| 2026-04-26 02:16 | -27.66674 | -48.54918 | 35 ft | 12 kts | 122° |
| 2026-04-26 02:16 | -27.66681 | -48.54842 | 35 ft | 7 kts | 47° |
| 2026-04-26 02:16 | -27.66633 | -48.54801 | 35 ft | 11 kts | 33° |
| 2026-04-26 02:16 | -27.66567 | -48.54756 | 35 ft | 10 kts | 31° |
| 2026-04-26 02:17 | -27.66507 | -48.54724 | 35 ft | 7 kts | 356° |
| 2026-04-26 02:17 | -27.66475 | -48.54757 | 35 ft | 6 kts | 302° |
| 2026-04-26 02:17 | -27.66451 | -48.54803 | 35 ft | 7 kts | 303° |
| 2026-04-26 02:17 | -27.66428 | -48.54819 | 35 ft | 3 kts | 19° |
| 2026-04-26 02:18 | -27.66415 | -48.54812 | 35 ft | 1 kts | 35° |
| 2026-04-26 02:18 | -27.66411 | -48.54808 | 35 ft | 0 kts | 36° |
| 2026-04-26 02:18 | -27.66410 | -48.54808 | 35 ft | 0 kts | 36° |
| 2026-04-26 02:18 | -27.66425 | -48.54823 | 35 ft | 3 kts | 42° |
| 2026-04-26 02:19 | -27.66408 | -48.54808 | 36 ft | 1 kts | 40° |
| 2026-04-26 02:19 | -27.66407 | -48.54807 | 36 ft | 0 kts | 40° |